Time;durP1;ratioP1;P1;durP2;ratioP2;P2;SDS_P1;SDS_P2;PMS_P1;PMS_P2;Temp;Humidity;BMP_temperature;BMP_pressure;BME280_temperature;BME280_humidity;BME280_pressure;Samples;Min_cycle;Max_cycle;Signal;HPM_P1;HPM_P2
2023/08/25 00:01:12;;;;;;;137.45;59.20;;;;;;;21.02;100.00;99317.38;12227872;19;20015;-82
2023/08/25 00:05:14;;;;;;;150.53;61.27;;;;;;;20.97;100.00;99314.72;12204485;19;20034;-82
2023/08/25 00:09:15;;;;;;;131.93;56.63;;;;;;;20.94;100.00;99325.47;12225386;19;20021;-82
2023/08/25 00:13:17;;;;;;;146.45;59.35;;;;;;;20.93;100.00;99320.19;12226115;19;20552;-82
2023/08/25 00:17:21;;;;;;;136.80;58.42;;;;;;;20.86;100.00;99315.09;12203934;19;20439;-82
2023/08/25 00:21:23;;;;;;;137.73;58.60;;;;;;;20.88;100.00;99311.94;12221117;19;20018;-82
2023/08/25 00:25:25;;;;;;;;;;;;;;;20.85;100.00;99301.41;12221142;19;20037;-82
2023/08/25 00:29:27;;;;;;;123.75;51.97;;;;;;;20.85;100.00;99316.25;12195867;19;20155;-83
2023/08/25 00:33:29;;;;;;;124.05;54.00;;;;;;;20.83;100.00;99312.94;12224587;19;20010;-82
2023/08/25 00:37:31;;;;;;;120.55;53.13;;;;;;;20.82;100.00;99308.50;12221325;19;20651;-82
2023/08/25 00:41:34;;;;;;;130.63;52.92;;;;;;;20.82;100.00;99304.84;12200203;19;20014;-82
2023/08/25 00:45:39;;;;;;;142.67;57.40;;;;;;;20.84;100.00;99305.34;12219883;19;20014;-82
2023/08/25 00:49:41;;;;;;;132.25;56.97;;;;;;;20.90;100.00;99304.84;12220058;19;20015;-83
2023/08/25 00:53:45;;;;;;;150.05;60.83;;;;;;;20.93;100.00;99287.38;12201058;19;20013;-82
2023/08/25 00:57:47;;;;;;;153.05;57.10;;;;;;;20.97;100.00;99300.72;12222618;19;20093;-82
2023/08/25 01:01:49;;;;;;;;;;;;;;;20.93;100.00;99307.00;12221998;19;20007;-82
2023/08/25 01:05:52;;;;;;;;;;;;;;;20.92;100.00;99327.75;12196997;19;19934;-82
2023/08/25 01:09:54;;;;;;;146.55;57.70;;;;;;;20.89;100.00;99314.41;12220016;19;19951;-82
2023/08/25 01:14:11;;;;;;;132.27;57.45;;;;;;;20.88;100.00;99326.78;12219491;19;20461;-82
2023/08/25 01:18:23;;;;;;;137.63;56.75;;;;;;;20.84;100.00;99317.38;12194979;19;20465;-81
2023/08/25 01:22:34;;;;;;;143.20;55.47;;;;;;;20.82;100.00;99297.31;12225714;19;20026;-82
2023/08/25 01:26:38;;;;;;;142.90;57.55;;;;;;;20.79;100.00;99303.56;12228478;19;20055;-82
2023/08/25 01:30:40;;;;;;;155.57;61.10;;;;;;;20.76;100.00;99292.19;12253725;19;20502;-83
2023/08/25 01:34:46;;;;;;;132.33;54.67;;;;;;;20.73;100.00;99290.03;12252078;19;20010;-81
2023/08/25 01:39:01;;;;;;;156.68;60.53;;;;;;;20.73;100.00;99288.06;12205724;19;20007;-82
2023/08/25 01:43:08;;;;;;;150.07;57.38;;;;;;;20.68;100.00;99285.44;12223752;19;20044;-82
2023/08/25 01:47:10;;;;;;;163.77;63.58;;;;;;;20.62;100.00;99275.56;12199682;19;20023;-82
2023/08/25 01:51:12;;;;;;;149.73;56.20;;;;;;;20.64;100.00;99278.84;12224975;19;20003;-82
2023/08/25 01:55:14;;;;;;;149.83;57.47;;;;;;;20.64;100.00;99264.84;12219091;19;20014;-82
2023/08/25 01:59:16;;;;;;;135.32;57.55;;;;;;;20.66;100.00;99259.75;12195848;19;20370;-82
2023/08/25 02:03:18;;;;;;;147.70;55.87;;;;;;;20.63;100.00;99266.00;12219308;19;20007;-82
2023/08/25 02:07:19;;;;;;;128.57;52.30;;;;;;;20.66;100.00;99260.56;12217386;19;20014;-82
2023/08/25 02:11:22;;;;;;;124.35;53.22;;;;;;;20.70;100.00;99258.78;12200393;19;20022;-82
2023/08/25 02:15:24;;;;;;;120.53;51.25;;;;;;;20.77;100.00;99260.25;12214356;19;20002;-82
2023/08/25 02:19:26;;;;;;;130.88;52.85;;;;;;;20.78;100.00;99270.28;12217668;19;20017;-82
2023/08/25 02:23:27;;;;;;;108.30;48.33;;;;;;;20.82;100.00;99266.50;12195465;19;20021;-82
2023/08/25 02:27:29;;;;;;;106.00;47.10;;;;;;;20.87;100.00;99274.72;12216284;19;20010;-82
2023/08/25 02:31:31;;;;;;;100.03;45.57;;;;;;;20.94;100.00;99265.84;12217375;19;20010;-82
2023/08/25 02:35:34;;;;;;;99.78;44.45;;;;;;;20.97;100.00;99265.16;12194313;19;20458;-83
2023/08/25 02:39:36;;;;;;;84.35;41.80;;;;;;;21.01;100.00;99254.13;12214277;19;20011;-82
2023/08/25 02:43:38;;;;;;;91.88;44.45;;;;;;;20.99;100.00;99248.00;12217458;19;20023;-82
2023/08/25 02:47:40;;;;;;;84.37;40.97;;;;;;;21.00;100.00;99249.66;12193958;19;20014;-82
2023/08/25 02:51:41;;;;;;;74.20;38.97;;;;;;;20.94;100.00;99237.81;12216343;19;20006;-82
2023/08/25 02:55:43;;;;;;;84.93;38.80;;;;;;;20.93;100.00;99214.56;12214102;19;20019;-82
2023/08/25 02:59:45;;;;;;;68.10;35.23;;;;;;;20.94;100.00;99205.03;12191538;19;20021;-83
2023/08/25 03:03:48;;;;;;;81.15;38.90;;;;;;;20.91;100.00;99200.09;12213667;19;20014;-82
2023/08/25 03:07:53;;;;;;;74.77;35.33;;;;;;;20.91;100.00;99194.50;12212879;19;20014;-83
2023/08/25 03:11:57;;;;;;;59.40;31.67;;;;;;;20.90;100.00;99190.03;12191576;19;20035;-82
2023/08/25 03:16:01;;;;;;;63.13;33.57;;;;;;;20.81;100.00;99178.03;12210071;19;20086;-83
2023/08/25 03:20:05;;;;;;;59.28;31.83;;;;;;;20.80;100.00;99181.19;12189064;19;20007;-82
2023/08/25 03:24:07;;;;;;;58.10;29.95;;;;;;;20.78;100.00;99177.88;12208210;19;20024;-82
2023/08/25 03:28:09;;;;;;;51.10;28.60;;;;;;;20.75;100.00;99173.78;12208913;19;20052;-83
2023/08/25 03:32:11;;;;;;;57.08;30.25;;;;;;;20.73;100.00;99173.28;12188594;19;20089;-83
2023/08/25 03:36:13;;;;;;;54.55;30.55;;;;;;;20.68;100.00;99170.69;12208980;19;20428;-82
2023/08/25 03:40:15;;;;;;;46.33;27.17;;;;;;;20.68;100.00;99170.69;12211488;19;20011;-82
2023/08/25 03:44:16;;;;;;;50.40;28.63;;;;;;;20.64;100.00;99164.06;12198340;19;20023;-82
2023/08/25 03:48:19;;;;;;;43.10;26.38;;;;;;;20.62;100.00;99152.41;12223888;19;20014;-82
2023/08/25 03:52:21;;;;;;;48.85;27.55;;;;;;;20.63;100.00;99159.66;12223457;19;20003;-82
2023/08/25 03:56:23;;;;;;;;;;;;;;;20.60;100.00;99155.53;12199439;19;20081;-82
2023/08/25 04:00:25;;;;;;;50.80;27.02;;;;;;;20.59;100.00;99127.88;12217667;19;20630;-82
2023/08/25 04:04:28;;;;;;;58.80;29.30;;;;;;;20.60;100.00;99129.53;12220682;19;20078;-82
2023/08/25 04:08:29;;;;;;;49.88;26.25;;;;;;;20.58;100.00;99134.63;12202004;19;20018;-83
2023/08/25 04:12:32;;;;;;;48.88;24.92;;;;;;;20.57;100.00;99135.78;12219981;19;20002;-83
2023/08/25 04:16:34;;;;;;;46.57;24.93;;;;;;;20.56;100.00;99137.75;12217119;19;20021;-82
2023/08/25 04:20:35;;;;;;;48.20;24.27;;;;;;;20.59;100.00;99141.88;12198696;19;20017;-82
2023/08/25 04:24:37;;;;;;;39.00;21.70;;;;;;;20.60;100.00;99140.72;12215380;19;20014;-83
2023/08/25 04:28:39;;;;;;;35.63;22.30;;;;;;;20.69;100.00;99145.13;12221699;19;20028;-83
2023/08/25 04:32:41;;;;;;;36.90;21.20;;;;;;;20.79;100.00;99146.78;12195816;19;20025;-82
2023/08/25 04:36:45;;;;;;;36.88;19.98;;;;;;;20.89;100.00;99156.78;12218402;19;20010;-82
2023/08/25 04:40:47;;;;;;;37.33;21.08;;;;;;;20.96;100.00;99164.66;12219518;19;20026;-83
2023/08/25 04:44:49;;;;;;;36.80;20.13;;;;;;;21.04;100.00;99191.81;12197099;19;20503;-81
2023/08/25 04:48:51;;;;;;;43.83;21.70;;;;;;;21.07;100.00;99244.38;12221638;19;20017;-82
2023/08/25 04:52:52;;;;;;;34.83;21.33;;;;;;;21.06;100.00;99249.16;12217498;19;20014;-82
2023/08/25 04:56:54;;;;;;;41.63;22.50;;;;;;;21.05;100.00;99238.28;12198345;19;20018;-82
2023/08/25 05:00:56;;;;;;;37.63;23.25;;;;;;;21.06;100.00;99225.91;12217920;19;20010;-83
2023/08/25 05:04:58;;;;;;;34.70;21.63;;;;;;;21.02;100.00;99188.53;12218786;19;20014;-83
2023/08/25 05:09:00;;;;;;;31.00;20.25;;;;;;;20.95;100.00;99161.03;12194196;19;20326;-83
2023/08/25 05:13:03;;;;;;;29.83;18.90;;;;;;;20.95;100.00;99149.84;12217039;19;20510;-83
2023/08/25 05:17:05;;;;;;;26.02;17.10;;;;;;;21.00;100.00;99174.03;12198896;19;20347;-83
2023/08/25 05:21:08;;;;;;;28.90;16.40;;;;;;;21.05;100.00;99165.44;12224463;19;20011;-82
2023/08/25 05:25:12;;;;;;;34.07;19.20;;;;;;;21.06;100.00;99162.31;12218544;19;20011;-82
2023/08/25 05:29:14;;;;;;;30.58;18.63;;;;;;;21.14;100.00;99146.63;12198133;19;20014;-82
2023/08/25 05:33:17;;;;;;;30.52;19.48;;;;;;;21.16;100.00;99161.13;12217879;19;20519;-82
2023/08/25 05:37:38;;;;;;;28.02;17.02;;;;;;;21.23;100.00;99175.41;12219786;19;20026;-82
2023/08/25 05:41:39;;;;;;;31.27;17.00;;;;;;;21.24;100.00;99207.06;12196016;19;20006;-82
2023/08/25 05:45:41;;;;;;;24.53;16.10;;;;;;;21.22;100.00;99260.66;12218794;19;20063;-82
2023/08/25 05:49:43;;;;;;;24.33;16.02;;;;;;;21.13;100.00;99335.47;12219731;19;20465;-82
2023/08/25 05:53:48;;;;;;;25.08;15.88;;;;;;;21.08;100.00;99316.84;12201331;19;20029;-82
2023/08/25 05:57:50;;;;;;;23.23;16.70;;;;;;;21.09;100.00;99312.06;12215828;19;20035;-82
2023/08/25 06:01:52;;;;;;;23.83;14.07;;;;;;;21.04;100.00;99282.28;12218513;19;20007;-84
2023/08/25 06:05:54;;;;;;;27.52;13.80;;;;;;;21.03;100.00;99230.22;12194451;19;20014;-84
2023/08/25 06:09:56;;;;;;;21.05;12.77;;;;;;;21.03;100.00;99220.97;12221332;19;20027;-84
2023/08/25 06:13:58;;;;;;;20.58;13.13;;;;;;;21.03;100.00;99215.38;12231685;19;20018;-84
2023/08/25 06:17:59;;;;;;;21.67;13.17;;;;;;;21.05;100.00;99185.06;12196440;19;20018;-84
2023/08/25 06:22:01;;;;;;;13.87;10.27;;;;;;;21.06;100.00;99144.66;12219285;19;20015;-84
2023/08/25 06:26:03;;;;;;;22.30;12.27;;;;;;;20.99;100.00;99223.63;12200477;19;20875;-83
2023/08/25 06:30:05;;;;;;;21.42;14.15;;;;;;;20.89;100.00;99271.59;12227158;19;20010;-82
2023/08/25 06:34:08;;;;;;;24.40;14.02;;;;;;;20.89;100.00;99230.41;12226098;19;20010;-83
2023/08/25 06:38:09;;;;;;;23.65;16.05;;;;;;;20.93;100.00;99253.78;12199955;19;20022;-83
2023/08/25 06:42:11;;;;;;;25.40;14.75;;;;;;;20.99;100.00;99231.19;12224125;19;20135;-84
2023/08/25 06:46:13;;;;;;;19.63;13.13;;;;;;;21.04;100.00;99219.84;12218870;19;20010;-83
2023/08/25 06:50:15;;;;;;;18.20;11.33;;;;;;;21.11;100.00;99189.31;12192144;19;20007;-84
2023/08/25 06:54:17;;;;;;;13.15;9.13;;;;;;;21.11;100.00;99164.09;12214657;19;20003;-83
2023/08/25 06:58:18;;;;;;;17.52;11.05;;;;;;;21.22;100.00;99176.59;12220675;19;20031;-84
2023/08/25 07:02:20;;;;;;;17.35;12.18;;;;;;;21.33;100.00;99137.81;12201413;19;20019;-83
2023/08/25 07:06:23;;;;;;;22.60;13.30;;;;;;;21.48;100.00;99131.66;12219234;19;20002;-83
2023/08/25 07:10:25;;;;;;;21.00;11.10;;;;;;;21.54;100.00;99149.91;12224047;19;20023;-83
2023/08/25 07:14:30;;;;;;;17.38;11.15;;;;;;;21.67;100.00;99158.41;12196285;19;20011;-83
2023/08/25 07:18:32;;;;;;;18.42;10.40;;;;;;;21.69;100.00;99184.94;12231187;19;20010;-83
2023/08/25 07:22:34;;;;;;;20.33;9.10;;;;;;;21.74;100.00;99178.31;12232938;19;20026;-83
2023/08/25 07:26:36;;;;;;;20.85;9.50;;;;;;;21.82;100.00;99199.88;12209544;19;20010;-83
2023/08/25 07:30:38;;;;;;;13.70;7.47;;;;;;;21.84;100.00;99215.22;12231299;19;20006;-83
2023/08/25 07:34:47;;;;;;;10.18;6.47;;;;;;;21.89;100.00;99208.56;12225852;19;20279;-83
2023/08/25 07:38:49;;;;;;;13.05;7.45;;;;;;;21.95;100.00;99210.03;12205122;19;20398;-83
2023/08/25 07:42:50;;;;;;;15.38;6.75;;;;;;;22.06;100.00;99221.66;12229832;19;20023;-82
2023/08/25 07:46:52;;;;;;;12.25;7.60;;;;;;;22.17;100.00;99217.31;12227877;19;20010;-83
2023/08/25 07:50:54;;;;;;;12.15;7.55;;;;;;;22.30;100.00;99182.53;12205601;19;20015;-83
2023/08/25 07:54:56;;;;;;;10.50;6.40;;;;;;;22.51;100.00;99176.06;12227325;19;20026;-82
2023/08/25 07:58:58;;;;;;;8.07;5.40;;;;;;;22.67;100.00;99202.38;12226439;19;21343;-83
2023/08/25 08:02:59;;;;;;;14.10;5.80;;;;;;;22.99;100.00;99208.31;12207950;19;20010;-82
2023/08/25 08:07:02;;;;;;;10.23;5.93;;;;;;;23.35;100.00;99212.38;12229962;19;20014;-82
2023/08/25 08:11:04;;;;;;;8.18;5.40;;;;;;;23.58;100.00;99230.44;12212545;19;20014;-83
2023/08/25 08:15:06;;;;;;;9.45;5.63;;;;;;;23.53;100.00;99232.66;12228565;19;20010;-83
2023/08/25 08:19:10;;;;;;;;;;;;;;;23.35;100.00;99243.28;12225564;19;20006;-83
2023/08/25 08:23:11;;;;;;;8.02;5.05;;;;;;;23.39;100.00;99241.44;12207272;19;19922;-84
2023/08/25 08:27:15;;;;;;;11.90;4.72;;;;;;;23.41;100.00;99251.16;12229556;19;20018;-83
2023/08/25 08:31:18;;;;;;;6.65;4.47;;;;;;;23.52;100.00;99229.03;12230322;19;20363;-83
2023/08/25 08:35:20;;;;;;;8.30;4.47;;;;;;;23.64;100.00;99229.03;12200764;19;20100;-83
2023/08/25 08:39:22;;;;;;;7.05;4.28;;;;;;;23.85;100.00;99220.50;12228250;19;20010;-84
2023/08/25 08:43:24;;;;;;;6.60;3.60;;;;;;;23.84;100.00;99243.38;12228628;19;20011;-83
2023/08/25 08:47:26;;;;;;;7.07;3.83;;;;;;;23.70;100.00;99226.00;12199921;19;20014;-83
2023/08/25 08:51:30;;;;;;;8.65;4.03;;;;;;;23.62;100.00;99220.13;12230278;19;20010;-82
2023/08/25 08:55:33;;;;;;;6.13;3.88;;;;;;;23.89;100.00;99234.69;12226140;19;20023;-83
2023/08/25 08:59:35;;;;;;;10.82;5.13;;;;;;;24.18;100.00;99249.66;12209771;19;20013;-83
2023/08/25 09:03:38;;;;;;;6.10;3.40;;;;;;;24.44;100.00;99266.97;12218603;19;20014;-84
2023/08/25 09:07:40;;;;;;;6.40;3.42;;;;;;;24.35;100.00;99263.47;12214793;19;20122;-85
2023/08/25 09:11:42;;;;;;;4.00;2.72;;;;;;;24.64;100.00;99258.72;12194390;19;20011;-83
2023/08/25 09:15:44;;;;;;;10.13;3.23;;;;;;;25.20;100.00;99250.28;12213297;19;20003;-84
2023/08/25 09:19:46;;;;;;;8.47;5.10;;;;;;;25.68;100.00;99237.00;12220789;19;20006;-85
2023/08/25 09:23:52;;;;;;;4.90;2.90;;;;;;;26.25;100.00;99232.72;12190744;19;20860;-86
2023/08/25 09:28:02;;;;;;;6.90;3.15;;;;;;;26.72;96.36;99253.56;12212315;19;20066;-84
2023/08/25 09:32:04;;;;;;;5.85;2.83;;;;;;;26.78;95.25;99232.28;12192556;19;20011;-84
2023/08/25 09:36:06;;;;;;;4.85;3.05;;;;;;;27.14;95.92;99219.66;12213698;19;20068;-84
2023/08/25 09:40:13;;;;;;;5.03;2.83;;;;;;;27.46;90.97;99225.09;12215793;19;20014;-84
2023/08/25 09:44:16;;;;;;;5.28;2.63;;;;;;;27.54;89.75;99200.56;12187774;19;20014;-84
2023/08/25 09:48:17;;;;;;;5.90;2.60;;;;;;;27.78;92.51;99186.03;12208995;19;20010;-84
2023/08/25 09:52:26;;;;;;;5.22;3.38;;;;;;;27.78;86.27;99183.19;12209157;19;20036;-84
2023/08/25 09:56:28;;;;;;;6.63;2.70;;;;;;;27.59;86.23;99183.28;12191800;19;20010;-84
2023/08/25 10:00:32;;;;;;;7.32;3.05;;;;;;;27.59;87.60;99186.91;12212961;19;20117;-84
2023/08/25 10:04:34;;;;;;;5.82;3.00;;;;;;;27.73;87.40;99167.34;12209889;19;20486;-83
2023/08/25 10:08:36;;;;;;;5.53;2.90;;;;;;;27.85;87.77;99152.19;12187816;19;20031;-83
2023/08/25 10:12:38;;;;;;;9.73;2.72;;;;;;;27.82;84.34;99135.94;12213000;19;20102;-83
2023/08/25 10:16:51;;;;;;;5.93;2.85;;;;;;;27.70;86.14;99179.41;12214109;19;20014;-83
2023/08/25 10:20:55;;;;;;;6.38;3.47;;;;;;;27.63;88.33;99179.28;12190633;19;20014;-83
2023/08/25 10:25:01;;;;;;;5.47;2.50;;;;;;;27.63;86.65;99182.13;12210222;19;20018;-84
2023/08/25 10:29:05;;;;;;;5.80;2.88;;;;;;;27.83;83.25;99171.56;12200873;19;20062;-85
2023/08/25 10:33:10;;;;;;;8.50;3.22;;;;;;;27.95;85.77;99164.84;12214176;19;20007;-84
2023/08/25 10:37:23;;;;;;;6.70;3.08;;;;;;;28.09;84.04;99162.22;12212147;19;20322;-84
2023/08/25 10:41:25;;;;;;;4.88;2.83;;;;;;;28.33;81.52;99174.28;12189591;19;20072;-84
2023/08/25 10:45:35;;;;;;;4.72;2.85;;;;;;;28.44;79.78;99182.94;12211575;19;20014;-87
2023/08/25 10:49:40;;;;;;;6.07;3.15;;;;;;;28.50;80.48;99176.56;12219863;19;20023;-84
2023/08/25 10:53:46;;;;;;;4.43;2.90;;;;;;;28.31;78.73;99179.50;12203980;19;20018;-85
2023/08/25 10:57:52;;;;;;;6.97;2.97;;;;;;;28.34;78.06;99170.22;12227678;19;20013;-84
2023/08/25 11:01:57;;;;;;;5.28;2.60;;;;;;;28.29;77.03;99156.41;12225494;19;20074;-85
2023/08/25 11:06:00;;;;;;;6.95;2.55;;;;;;;28.45;76.17;99167.56;12200925;19;20027;-85
2023/08/25 11:10:13;;;;;;;5.57;2.80;;;;;;;28.29;74.33;99168.56;12223684;19;20011;-83
2023/08/25 11:14:14;;;;;;;;;;;;;;;28.30;76.67;99169.38;12200692;19;20011;-86
2023/08/25 11:18:16;;;;;;;3.42;2.30;;;;;;;28.44;75.54;99166.75;12223127;19;19911;-83
2023/08/25 11:22:20;;;;;;;5.45;3.15;;;;;;;28.27;75.37;99167.31;12223026;19;20015;-84
2023/08/25 11:26:22;;;;;;;8.85;2.60;;;;;;;28.15;76.13;99179.69;12195413;19;20023;-84
2023/08/25 11:30:24;;;;;;;6.15;2.70;;;;;;;28.02;75.86;99184.78;12218917;19;20015;-83
2023/08/25 11:34:29;;;;;;;4.22;2.70;;;;;;;27.87;74.88;99182.91;12219592;19;20022;-83
2023/08/25 11:38:31;;;;;;;4.03;2.65;;;;;;;27.95;75.59;99184.66;12196903;19;20018;-82
2023/08/25 11:42:34;;;;;;;3.65;2.25;;;;;;;28.11;73.50;99179.66;12219612;19;20528;-82
2023/08/25 11:46:35;;;;;;;6.50;3.33;;;;;;;28.26;74.22;99185.50;12214871;19;20023;-84
2023/08/25 11:50:37;;;;;;;5.78;2.65;;;;;;;28.65;73.99;99177.53;12192491;19;20114;-83
2023/08/25 11:54:49;;;;;;;4.45;2.90;;;;;;;28.56;71.79;99175.00;12213167;19;20011;-84
2023/08/25 11:58:52;;;;;;;5.17;2.67;;;;;;;28.79;73.45;99188.22;12218554;19;20010;-84
2023/08/25 12:02:57;;;;;;;5.70;2.80;;;;;;;29.14;69.14;99195.50;12214448;19;20032;-84
2023/08/25 12:07:02;;;;;;;;;;;;;;;29.13;69.34;99200.38;12246585;19;19998;-84
2023/08/25 12:11:06;;;;;;;6.03;2.35;;;;;;;28.95;68.26;99193.69;12239043;19;19918;-84
2023/08/25 12:15:08;;;;;;;4.07;2.70;;;;;;;28.92;69.98;99191.63;12244927;19;20019;-85
2023/08/25 12:19:10;;;;;;;5.75;3.25;;;;;;;28.81;71.25;99203.63;12223571;19;20022;-85
2023/08/25 12:23:13;;;;;;;5.40;3.55;;;;;;;28.89;71.83;99198.06;12199846;19;20026;-83
2023/08/25 12:27:17;;;;;;;4.30;3.28;;;;;;;28.65;71.79;99211.56;12217636;19;20056;-82
2023/08/25 12:31:19;;;;;;;6.50;2.90;;;;;;;28.70;71.59;99202.69;12218829;19;20010;-84
2023/08/25 12:35:23;;;;;;;7.15;3.08;;;;;;;28.84;73.76;99190.72;12191871;19;20066;-83
2023/08/25 12:39:25;;;;;;;5.22;3.30;;;;;;;28.96;73.67;99181.94;12214475;19;20085;-85
2023/08/25 12:43:27;;;;;;;7.03;3.50;;;;;;;29.21;72.11;99181.38;12077268;19;2735916;-84
2023/08/25 12:47:29;;;;;;;5.97;3.17;;;;;;;29.62;71.04;99172.84;12199740;19;20027;-84
2023/08/25 12:51:31;;;;;;;6.85;3.35;;;;;;;29.94;67.48;99175.94;12219817;19;20015;-85
2023/08/25 12:55:44;;;;;;;6.75;4.05;;;;;;;29.94;68.08;99162.53;12220817;19;20018;-83
2023/08/25 12:59:46;;;;;;;8.18;3.92;;;;;;;30.08;69.19;99163.84;12197351;19;20080;-83
2023/08/25 13:03:48;;;;;;;6.80;4.43;;;;;;;30.24;67.75;99167.19;12218042;19;20013;-82
2023/08/25 13:07:50;;;;;;;6.57;3.75;;;;;;;30.38;66.56;99163.63;12218145;19;20612;-83
2023/08/25 13:11:52;;;;;;;6.22;4.05;;;;;;;30.66;65.53;99179.97;12197913;19;20023;-83
2023/08/25 13:15:56;;;;;;;8.38;4.47;;;;;;;30.58;66.00;99172.63;12216799;19;20059;-83
2023/08/25 13:19:58;;;;;;;6.15;3.90;;;;;;;30.54;66.50;99166.09;12220379;19;20041;-84
2023/08/25 13:23:59;;;;;;;8.07;4.20;;;;;;;31.68;63.13;99154.97;12195545;19;20015;-86
2023/08/25 13:28:10;;;;;;;6.50;4.03;;;;;;;33.00;58.13;99122.31;12218746;19;20022;-85
2023/08/25 13:32:12;;;;;;;;;;;;;;;33.29;55.75;99110.69;12196243;19;20011;-86
2023/08/25 13:36:15;;;;;;;6.32;3.88;;;;;;;34.72;52.08;99111.19;12216867;19;19923;-83
2023/08/25 13:40:17;;;;;;;7.80;4.60;;;;;;;35.72;48.70;99119.00;12215946;19;20015;-82
2023/08/25 13:44:18;;;;;;;8.13;5.65;;;;;;;36.10;46.62;99115.84;12197496;19;20027;-85
2023/08/25 13:48:20;;;;;;;12.52;5.40;;;;;;;35.28;47.99;99118.13;12221177;19;20019;-84
2023/08/25 13:52:22;;;;;;;7.00;5.13;;;;;;;35.41;47.05;99121.19;12220641;19;20265;-82
2023/08/25 13:56:25;;;;;;;7.97;5.10;;;;;;;34.96;46.83;99129.25;12193136;19;20014;-84
2023/08/25 14:00:27;;;;;;;7.05;5.25;;;;;;;34.29;46.88;99118.25;12218767;19;20017;-84
2023/08/25 14:04:29;;;;;;;5.55;4.68;;;;;;;33.65;48.66;99119.78;12217406;19;20021;-83
2023/08/25 14:08:31;;;;;;;6.30;4.88;;;;;;;32.85;51.16;99124.44;12195390;19;20014;-84
2023/08/25 14:12:33;;;;;;;7.28;4.47;;;;;;;32.61;53.13;99120.50;12215990;19;20035;-86
2023/08/25 14:16:35;;;;;;;9.18;4.65;;;;;;;32.37;54.91;99125.06;12215598;19;20018;-84
2023/08/25 14:20:37;;;;;;;;;;;;;;;32.03;54.72;99113.38;12193778;19;20022;-84
2023/08/25 14:24:38;;;;;;;5.95;4.65;;;;;;;31.63;56.49;99124.03;12214882;19;19921;-84
2023/08/25 14:28:40;;;;;;;8.50;3.92;;;;;;;31.27;54.74;99106.16;12218557;19;20015;-83
2023/08/25 14:32:42;;;;;;;7.63;4.50;;;;;;;31.17;56.51;99112.63;12191209;19;20002;-85
2023/08/25 14:36:44;;;;;;;7.18;4.03;;;;;;;31.42;55.31;99119.19;12216454;19;20750;-84
2023/08/25 14:40:46;;;;;;;;;;;;;;;31.05;57.04;99125.22;12215475;19;20352;-84
2023/08/25 14:44:48;;;;;;;5.20;3.72;;;;;;;31.04;57.47;99126.44;12196208;19;19914;-83
2023/08/25 14:48:49;;;;;;;6.05;4.03;;;;;;;31.30;56.94;99116.72;12218209;19;19999;-83
2023/08/25 14:52:51;;;;;;;6.65;4.60;;;;;;;31.42;57.10;99112.69;12223673;19;20010;-82
2023/08/25 14:56:53;;;;;;;7.43;3.88;;;;;;;31.86;56.10;99117.91;12195598;19;20014;-84
2023/08/25 15:00:55;;;;;;;7.80;4.50;;;;;;;31.76;56.86;99110.97;12220011;19;20017;-83
2023/08/25 15:04:57;;;;;;;7.00;4.50;;;;;;;31.41;57.85;99117.56;12226453;19;20014;-86
2023/08/25 15:08:59;;;;;;;8.38;4.25;;;;;;;31.36;58.64;99097.22;12196698;19;20006;-84
2023/08/25 15:13:01;;;;;;;8.85;5.13;;;;;;;31.04;59.37;99098.81;12216167;19;20023;-84
2023/08/25 15:17:03;;;;;;;7.47;5.10;;;;;;;30.66;61.01;99098.31;12212603;19;20028;-87
2023/08/25 15:21:05;;;;;;;6.85;4.78;;;;;;;30.40;62.94;99110.00;12213908;19;20014;-83
2023/08/25 15:25:07;;;;;;;;;;;;;;;30.17;64.96;99096.09;12210775;19;20014;-83
2023/08/25 15:29:09;;;;;;;9.80;5.07;;;;;;;30.09;66.11;99095.25;12191300;19;19923;-85
2023/08/25 15:33:11;;;;;;;8.60;4.95;;;;;;;29.94;67.26;99108.56;12213554;19;20082;-85
2023/08/25 15:37:14;;;;;;;7.32;5.45;;;;;;;29.95;67.15;99123.56;12226813;19;20014;-84
2023/08/25 15:41:17;;;;;;;7.18;4.68;;;;;;;29.98;66.31;99117.94;12202149;19;20010;-85
2023/08/25 15:45:19;;;;;;;10.18;4.80;;;;;;;30.13;65.78;99112.31;12225641;19;20009;-85
2023/08/25 15:49:21;;;;;;;5.85;4.70;;;;;;;29.80;66.98;99110.50;12227344;19;20031;-86
2023/08/25 15:53:23;;;;;;;8.43;5.72;;;;;;;29.58;67.93;99093.31;12202615;19;20023;-85
2023/08/25 15:57:25;;;;;;;8.02;4.75;;;;;;;29.43;69.51;99085.91;12225385;19;20344;-85
2023/08/25 16:01:42;;;;;;;7.75;5.00;;;;;;;29.40;69.53;99081.84;12223229;19;20011;-84
2023/08/25 16:05:53;;;;;;;9.73;4.82;;;;;;;29.21;71.23;99065.91;12200613;19;20109;-85
2023/08/25 16:09:54;;;;;;;9.52;5.68;;;;;;;29.18;71.15;99058.19;12223441;19;20032;-84
2023/08/25 16:13:56;;;;;;;9.38;5.40;;;;;;;29.13;72.05;99052.06;12222742;19;20069;-86
2023/08/25 16:17:58;;;;;;;8.20;4.97;;;;;;;29.05;72.33;99043.47;12203692;19;20090;-84
2023/08/25 16:22:00;;;;;;;8.23;4.60;;;;;;;29.23;71.93;99025.78;12221927;19;20029;-83
2023/08/25 16:26:03;;;;;;;7.88;4.78;;;;;;;29.13;73.24;99007.47;12219121;19;20070;-85
2023/08/25 16:30:06;;;;;;;7.40;4.57;;;;;;;28.93;73.82;99006.88;12199617;19;20007;-84
2023/08/25 16:34:08;;;;;;;7.40;4.28;;;;;;;28.81;74.47;99001.53;12219548;19;20019;-84
2023/08/25 16:38:10;;;;;;;8.40;4.70;;;;;;;28.76;73.74;98996.19;12200366;19;20018;-84
2023/08/25 16:42:11;;;;;;;;;;;;;;;28.63;74.71;99005.00;12222163;19;20010;-84
2023/08/25 16:46:13;;;;;;;8.93;4.40;;;;;;;28.56;74.97;99004.97;12220256;19;19915;-84
2023/08/25 16:50:15;;;;;;;9.52;5.10;;;;;;;28.47;75.64;98998.00;12198016;19;20090;-85
2023/08/25 16:54:17;;;;;;;8.70;5.40;;;;;;;28.40;76.87;98993.00;12218472;19;20011;-85
2023/08/25 16:58:18;;;;;;;7.32;4.57;;;;;;;28.34;76.55;99000.25;12221678;19;20031;-83
2023/08/25 17:02:20;;;;;;;6.45;4.95;;;;;;;28.22;75.67;99009.81;12197986;19;20644;-85
2023/08/25 17:06:22;;;;;;;9.90;4.78;;;;;;;28.19;76.30;99007.78;12219076;19;20015;-84
2023/08/25 17:10:25;;;;;;;11.20;4.50;;;;;;;28.10;76.79;99021.44;12223486;19;20443;-83
2023/08/25 17:14:26;;;;;;;7.18;4.53;;;;;;;27.90;77.84;99020.78;12196909;19;20006;-84
2023/08/25 17:18:28;;;;;;;8.65;4.45;;;;;;;27.69;78.15;99050.44;12223913;19;20014;-82
2023/08/25 17:22:30;;;;;;;;;;;;;;;27.52;78.99;99042.50;12222468;19;20003;-83
2023/08/25 17:26:32;;;;;;;10.50;4.77;;;;;;;27.49;79.05;99035.59;12194712;19;20080;-84
2023/08/25 17:30:34;;;;;;;8.60;4.75;;;;;;;27.40;80.44;99040.72;12218933;19;20011;-84
2023/08/25 17:34:36;;;;;;;6.05;4.47;;;;;;;27.34;80.60;99044.25;12215806;19;20014;-84
2023/08/25 17:38:38;;;;;;;10.05;4.50;;;;;;;27.31;80.65;99057.16;12197807;19;20102;-84
2023/08/25 17:42:40;;;;;;;5.97;4.25;;;;;;;27.26;80.42;99058.28;12217932;19;20015;-83
2023/08/25 17:46:42;;;;;;;12.68;5.38;;;;;;;27.21;81.81;99069.91;12216585;19;20014;-84
2023/08/25 17:50:43;;;;;;;7.95;4.78;;;;;;;27.12;81.50;99066.50;12196692;19;20465;-84
2023/08/25 17:54:45;;;;;;;7.45;4.57;;;;;;;27.13;81.33;99051.19;12214228;19;20014;-84
2023/08/25 17:58:47;;;;;;;9.32;5.43;;;;;;;27.07;82.17;99049.03;12214662;19;20382;-84
2023/08/25 18:02:49;;;;;;;8.00;5.15;;;;;;;26.93;83.62;99069.41;12189499;19;20549;-84
2023/08/25 18:06:52;;;;;;;10.40;5.45;;;;;;;26.78;83.65;99074.81;12212357;19;20023;-84
2023/08/25 18:10:55;;;;;;;13.63;5.20;;;;;;;26.75;85.54;99072.75;12212512;19;20371;-85
2023/08/25 18:14:57;;;;;;;10.30;5.25;;;;;;;26.62;87.71;99067.63;12186168;19;20010;-84
2023/08/25 18:18:59;;;;;;;8.23;5.18;;;;;;;26.45;90.23;99058.44;12212698;19;20028;-84
2023/08/25 18:23:01;;;;;;;16.27;5.82;;;;;;;26.24;91.97;99041.91;12212672;19;20002;-85
2023/08/25 18:27:03;;;;;;;7.90;5.13;;;;;;;26.05;91.42;99033.44;12182793;19;20483;-84
2023/08/25 18:31:06;;;;;;;8.65;4.82;;;;;;;25.87;92.02;99022.59;12207344;19;20100;-86
2023/08/25 18:35:08;;;;;;;10.98;5.05;;;;;;;25.66;92.52;99028.56;12183879;19;20003;-84